Time;durP1;ratioP1;P1;durP2;ratioP2;P2;SDS_P1;SDS_P2;PMS_P1;PMS_P2;Temp;Humidity;BMP_temperature;BMP_pressure;BME280_temperature;BME280_humidity;BME280_pressure;Samples;Min_cycle;Max_cycle;Signal;HPM_P1;HPM_P2
2023/04/23 00:01:43;;;;;;;55.03;32.35;;;;;;;7.26;100.00;100808.28;6100362;23;20019;-77
2023/04/23 00:04:10;;;;;;;68.38;32.38;;;;;;;7.27;100.00;100807.13;6100114;23;20461;-76
2023/04/23 00:06:38;;;;;;;53.15;31.30;;;;;;;7.25;100.00;100812.84;6100345;23;20078;-77
2023/04/23 00:09:06;;;;;;;61.67;32.47;;;;;;;7.26;100.00;100803.75;6100372;23;20019;-76
2023/04/23 00:11:33;;;;;;;49.60;29.60;;;;;;;7.22;100.00;100807.63;6099767;23;20019;-76
2023/04/23 00:13:59;;;;;;;55.83;31.77;;;;;;;7.20;100.00;100807.28;6100355;23;20015;-76
2023/04/23 00:16:26;;;;;;;60.80;32.92;;;;;;;7.17;100.00;100810.78;6100379;23;20031;-76
2023/04/23 00:18:53;;;;;;;63.20;34.42;;;;;;;7.16;100.00;100809.31;6100939;23;20460;-77
2023/04/23 00:21:19;;;;;;;60.80;33.10;;;;;;;7.15;100.00;100810.47;6100417;23;20025;-77
2023/04/23 00:23:46;;;;;;;59.13;32.35;;;;;;;7.13;100.00;100807.47;6100143;23;20023;-76
2023/04/23 00:26:12;;;;;;;59.83;33.22;;;;;;;7.12;100.00;100806.72;6099591;23;20018;-76
2023/04/23 00:28:39;;;;;;;61.72;33.45;;;;;;;7.12;100.00;100803.34;6100139;23;20369;-76
2023/04/23 00:31:06;;;;;;;63.17;33.17;;;;;;;7.10;100.00;100801.09;6100068;23;20043;-77
2023/04/23 00:33:33;;;;;;;64.68;33.08;;;;;;;7.09;100.00;100793.56;6100131;23;20019;-76
2023/04/23 00:35:59;;;;;;;60.88;32.97;;;;;;;7.10;100.00;100790.53;6100106;23;20022;-77
2023/04/23 00:38:26;;;;;;;60.85;33.58;;;;;;;7.08;100.00;100792.84;6100160;23;20138;-77
2023/04/23 00:40:53;;;;;;;65.47;33.55;;;;;;;7.08;100.00;100786.78;6073661;23;20019;-77
2023/04/23 00:43:19;;;;;;;59.58;33.03;;;;;;;7.07;100.00;100780.00;6074162;23;20457;-77
2023/04/23 00:45:47;;;;;;;59.05;32.80;;;;;;;7.06;100.00;100773.22;6100786;23;20019;-77
2023/04/23 00:48:15;;;;;;;65.18;34.10;;;;;;;7.06;100.00;100770.59;6074078;23;20090;-77
2023/04/23 00:50:42;;;;;;;58.63;33.92;;;;;;;7.06;100.00;100765.28;6100002;23;20019;-76
2023/04/23 00:53:08;;;;;;;62.50;33.03;;;;;;;7.05;100.00;100771.75;6100150;23;20046;-76
2023/04/23 00:55:35;;;;;;;60.92;33.35;;;;;;;7.03;100.00;100772.91;6099384;23;20046;-76
2023/04/23 00:58:02;;;;;;;57.17;32.80;;;;;;;7.02;100.00;100766.13;6068817;23;20034;-77
2023/04/23 01:00:29;;;;;;;64.50;34.03;;;;;;;7.00;100.00;100770.31;6070801;23;20019;-77
2023/04/23 01:02:57;;;;;;;67.30;34.25;;;;;;;7.01;100.00;100767.28;6069689;23;20046;-77
2023/04/23 01:05:24;;;;;;;62.85;34.42;;;;;;;7.01;100.00;100766.53;6070457;23;20450;-77
2023/04/23 01:07:51;;;;;;;64.68;33.90;;;;;;;7.03;100.00;100759.66;6071620;23;20493;-77
2023/04/23 01:10:18;;;;;;;69.35;34.53;;;;;;;7.04;100.00;100765.69;6071047;23;20055;-75
2023/04/23 01:12:45;;;;;;;63.72;33.30;;;;;;;7.05;100.00;100761.16;6071147;23;20020;-75
2023/04/23 01:15:12;;;;;;;59.58;32.80;;;;;;;7.05;100.00;100756.59;6070702;23;20091;-75
2023/04/23 01:17:38;;;;;;;65.53;35.63;;;;;;;7.06;100.00;100747.50;6071001;23;20094;-75
2023/04/23 01:20:06;;;;;;;65.70;34.25;;;;;;;7.06;100.00;100747.50;6069076;23;20019;-75
2023/04/23 01:22:36;;;;;;;62.35;34.50;;;;;;;7.06;100.00;100744.84;6070442;23;20075;-75
2023/04/23 01:25:03;;;;;;;67.82;35.35;;;;;;;7.05;100.00;100734.69;6069358;23;20413;-75
2023/04/23 01:27:31;;;;;;;69.57;34.38;;;;;;;7.04;100.00;100741.88;6070612;23;20026;-75
2023/04/23 01:29:58;;;;;;;60.70;35.17;;;;;;;7.05;100.00;100737.31;6070725;23;20453;-75
2023/04/23 01:32:25;;;;;;;69.22;35.15;;;;;;;7.04;100.00;100736.59;6070604;23;20026;-75
2023/04/23 01:34:55;;;;;;;61.45;34.70;;;;;;;7.05;100.00;100732.78;6070675;23;20448;-75
2023/04/23 01:37:23;;;;;;;63.55;34.17;;;;;;;7.04;100.00;100733.94;6068299;23;20027;-77
2023/04/23 01:39:50;;;;;;;65.60;34.38;;;;;;;7.03;100.00;100724.50;6071259;23;20015;-77
2023/04/23 01:42:17;;;;;;;71.57;34.25;;;;;;;7.03;100.00;100725.25;6070939;23;20075;-77
2023/04/23 01:44:43;;;;;;;64.97;34.42;;;;;;;7.03;100.00;100714.66;6070583;23;20051;-75
2023/04/23 01:47:10;;;;;;;60.50;33.38;;;;;;;7.03;100.00;100717.31;6070698;23;20410;-75
2023/04/23 01:49:36;;;;;;;66.05;35.08;;;;;;;7.05;100.00;100724.09;6070637;23;20039;-75
2023/04/23 01:52:03;;;;;;;64.68;34.10;;;;;;;7.05;100.00;100724.84;6068519;23;20466;-75
2023/04/23 01:54:30;;;;;;;59.42;34.65;;;;;;;7.06;100.00;100717.63;6070970;23;20015;-75
2023/04/23 01:56:57;;;;;;;68.40;34.35;;;;;;;7.06;100.00;100725.59;6068870;23;20083;-75
2023/04/23 01:59:24;;;;;;;65.45;34.30;;;;;;;7.10;100.00;100713.00;6068671;23;20541;-76
2023/04/23 02:01:51;;;;;;;61.85;32.60;;;;;;;7.10;100.00;100708.47;6071116;23;20042;-75
2023/04/23 02:04:18;;;;;;;60.60;33.85;;;;;;;7.12;100.00;100702.75;6068790;23;20024;-75
2023/04/23 02:06:48;;;;;;;63.85;31.92;;;;;;;7.14;100.00;100717.06;6069946;23;20025;-75
2023/04/23 02:09:15;;;;;;;63.55;33.47;;;;;;;7.15;100.00;100707.97;6068642;23;20047;-75
2023/04/23 02:11:42;;;;;;;60.67;32.13;;;;;;;7.17;100.00;100710.94;6068728;23;20064;-77
2023/04/23 02:14:09;;;;;;;56.75;31.33;;;;;;;7.18;100.00;100699.19;6070599;23;20023;-77
2023/04/23 02:16:36;;;;;;;64.00;32.55;;;;;;;7.19;100.00;100689.34;6068936;23;20039;-77
2023/04/23 02:19:03;;;;;;;57.30;32.45;;;;;;;7.20;100.00;100698.75;6070721;23;20079;-77
2023/04/23 02:21:29;;;;;;;58.40;32.08;;;;;;;7.23;100.00;100697.91;6068182;23;20058;-77
2023/04/23 02:23:56;;;;;;;60.03;32.67;;;;;;;7.22;100.00;100699.06;6070819;23;20362;-77
2023/04/23 02:26:23;;;;;;;57.65;31.83;;;;;;;7.23;100.00;100690.72;6070803;23;20446;-77
2023/04/23 02:28:50;;;;;;;59.92;30.60;;;;;;;7.26;100.00;100689.13;6071066;23;20023;-78
2023/04/23 02:31:17;;;;;;;57.83;32.40;;;;;;;7.27;100.00;100687.97;6070922;23;20015;-77
2023/04/23 02:33:45;;;;;;;61.78;32.38;;;;;;;7.28;100.00;100697.41;6070416;23;20022;-77
2023/04/23 02:36:12;;;;;;;62.72;32.35;;;;;;;7.28;100.00;100687.56;6069982;23;20028;-76
2023/04/23 02:38:43;;;;;;;60.65;32.33;;;;;;;7.28;100.00;100684.91;6070776;23;20019;-77
2023/04/23 02:41:10;;;;;;;66.32;33.35;;;;;;;7.28;100.00;100687.56;6070637;23;20439;-77
2023/04/23 02:43:37;;;;;;;58.15;31.83;;;;;;;7.26;100.00;100686.50;6070547;23;20063;-76
2023/04/23 02:46:07;;;;;;;55.22;32.22;;;;;;;7.26;100.00;100681.19;6070267;23;20482;-77
2023/04/23 02:48:39;;;;;;;55.30;31.42;;;;;;;7.27;100.00;100686.06;6070747;23;20075;-77
2023/04/23 02:51:09;;;;;;;54.17;31.23;;;;;;;7.27;100.00;100675.47;6068553;23;20028;-76
2023/04/23 02:53:36;;;;;;;53.47;30.45;;;;;;;7.27;100.00;100678.13;6070612;23;20319;-77
2023/04/23 02:56:03;;;;;;;58.83;30.27;;;;;;;7.27;100.00;100680.03;6070529;23;20362;-77
2023/04/23 02:58:30;;;;;;;55.22;31.88;;;;;;;7.26;100.00;100686.50;6068232;23;20107;-77
2023/04/23 03:00:59;;;;;;;53.38;31.45;;;;;;;7.27;100.00;100682.69;6068356;23;20099;-78
2023/04/23 03:03:30;;;;;;;57.53;30.95;;;;;;;7.28;100.00;100676.22;6070130;23;20023;-77
2023/04/23 03:06:00;;;;;;;53.35;31.73;;;;;;;7.28;100.00;100682.25;6068311;23;20020;-76
2023/04/23 03:08:27;;;;;;;59.92;31.73;;;;;;;7.30;100.00;100690.53;6070242;23;20027;-77
2023/04/23 03:10:54;;;;;;;58.83;30.55;;;;;;;7.30;100.00;100677.28;6068970;23;20070;-77
2023/04/23 03:13:21;;;;;;;55.10;29.80;;;;;;;7.32;100.00;100690.84;6068428;23;20507;-77
2023/04/23 03:15:50;;;;;;;56.17;30.67;;;;;;;7.33;100.00;100686.31;6068855;23;20050;-76
2023/04/23 03:18:17;;;;;;;51.53;29.45;;;;;;;7.31;100.00;100686.72;6068357;23;20081;-76
2023/04/23 03:20:46;;;;;;;54.33;29.50;;;;;;;7.32;100.00;100679.53;6068077;23;20909;-75
2023/04/23 03:23:13;;;;;;;51.65;28.77;;;;;;;7.32;100.00;100684.81;6068260;23;20119;-76
2023/04/23 03:25:40;;;;;;;48.65;28.02;;;;;;;7.31;100.00;100676.13;6068413;23;20118;-76
2023/04/23 03:28:06;;;;;;;46.38;27.92;;;;;;;7.32;100.00;100674.22;6070401;23;20020;-76
2023/04/23 03:30:33;;;;;;;44.05;25.98;;;;;;;7.33;100.00;100670.41;6070312;23;20493;-76
2023/04/23 03:33:01;;;;;;;42.53;25.25;;;;;;;7.35;100.00;100668.09;6069397;23;20038;-76
2023/04/23 03:35:28;;;;;;;43.70;25.23;;;;;;;7.38;100.00;100663.88;6068079;23;20395;-76
2023/04/23 03:37:57;;;;;;;40.30;24.23;;;;;;;7.39;100.00;100665.34;6068169;23;20034;-76
2023/04/23 03:40:24;;;;;;;41.72;24.55;;;;;;;7.41;100.00;100661.13;6068222;23;20023;-76
2023/04/23 03:42:56;;;;;;;47.45;24.05;;;;;;;7.44;100.00;100670.16;6068680;23;20022;-76
2023/04/23 03:45:35;;;;;;;38.28;22.80;;;;;;;7.42;100.00;100667.91;6067961;23;20087;-76
2023/04/23 03:48:02;;;;;;;41.08;23.73;;;;;;;7.43;100.00;100671.31;6067450;23;20020;-76
2023/04/23 03:50:28;;;;;;;42.50;24.08;;;;;;;7.40;100.00;100675.53;6068331;23;20019;-77
2023/04/23 03:53:09;;;;;;;40.55;23.10;;;;;;;7.39;100.00;100663.44;6068295;23;20023;-76
2023/04/23 03:56:07;;;;;;;40.15;23.75;;;;;;;7.38;100.00;100666.53;6069821;23;20058;-76
2023/04/23 03:58:43;;;;;;;37.00;23.27;;;;;;;7.36;100.00;100659.00;6072917;23;20050;-76
2023/04/23 04:01:10;;;;;;;39.05;23.75;;;;;;;7.33;100.00;100662.47;6098808;23;20023;-76
2023/04/23 04:03:36;;;;;;;37.28;23.23;;;;;;;7.31;100.00;100664.78;6098354;23;20041;-76
2023/04/23 04:06:03;;;;;;;41.97;24.20;;;;;;;7.28;100.00;100653.13;6072830;23;20023;-77
2023/04/23 04:08:30;;;;;;;39.70;24.17;;;;;;;7.26;100.00;100660.75;6098914;23;20016;-77
2023/04/23 04:10:56;;;;;;;40.00;23.58;;;;;;;7.26;100.00;100657.34;6098846;23;20023;-77
2023/04/23 04:13:23;;;;;;;38.95;24.25;;;;;;;7.24;100.00;100654.38;6072919;23;20030;-75
2023/04/23 04:15:49;;;;;;;35.65;23.55;;;;;;;7.23;100.00;100653.63;6099093;23;20411;-77
2023/04/23 04:18:16;;;;;;;40.20;24.02;;;;;;;7.22;100.00;100656.72;6097758;23;20708;-76
2023/04/23 04:20:44;;;;;;;35.65;22.45;;;;;;;7.21;100.00;100660.50;6098626;23;20071;-75
2023/04/23 04:23:10;;;;;;;40.78;23.65;;;;;;;7.20;100.00;100651.81;6098861;23;20022;-77
2023/04/23 04:25:38;;;;;;;39.42;23.58;;;;;;;7.20;100.00;100653.72;6098460;23;20051;-77
2023/04/23 04:28:07;;;;;;;38.75;22.83;;;;;;;7.17;100.00;100654.59;6098557;23;20373;-77
2023/04/23 04:30:34;;;;;;;34.85;22.52;;;;;;;7.16;100.00;100656.50;6098631;23;20481;-77
2023/04/23 04:33:00;;;;;;;39.15;22.02;;;;;;;7.16;100.00;100659.16;6097741;23;20422;-77
2023/04/23 04:35:27;;;;;;;35.53;22.75;;;;;;;7.17;100.00;100660.63;6098309;23;20525;-77
2023/04/23 04:37:53;;;;;;;38.75;22.27;;;;;;;7.18;100.00;100658.72;6073341;23;20071;-77
2023/04/23 04:40:20;;;;;;;43.45;24.20;;;;;;;7.19;100.00;100655.66;6073374;23;20558;-77
2023/04/23 04:42:47;;;;;;;33.45;22.15;;;;;;;7.21;100.00;100665.81;6098938;23;20022;-77
2023/04/23 04:45:13;;;;;;;43.63;22.83;;;;;;;7.23;100.00;100660.84;6098345;23;20129;-77
2023/04/23 04:47:40;;;;;;;32.70;21.17;;;;;;;7.22;100.00;100659.34;6097792;23;20094;-77
2023/04/23 04:50:07;;;;;;;38.33;22.58;;;;;;;7.23;100.00;100666.13;6098569;23;20022;-76
2023/04/23 04:52:34;;;;;;;33.30;20.85;;;;;;;7.23;100.00;100666.13;6098501;23;20432;-77
2023/04/23 04:55:01;;;;;;;34.63;22.35;;;;;;;7.25;100.00;100666.47;6098635;23;20058;-77
2023/04/23 04:57:27;;;;;;;39.08;22.35;;;;;;;7.27;100.00;100669.44;6054000;23;1047417;-76
2023/04/23 04:59:54;;;;;;;45.20;22.05;;;;;;;7.29;100.00;100664.47;6100082;23;20453;-77
2023/04/23 05:02:22;;;;;;;33.80;20.75;;;;;;;7.32;100.00;100674.97;6100293;23;20018;-77
2023/04/23 05:04:49;;;;;;;33.40;21.60;;;;;;;7.41;100.00;100673.63;6100750;23;20086;-77
2023/04/23 05:07:15;;;;;;;37.15;22.48;;;;;;;7.48;100.00;100668.91;6100114;23;20065;-77
2023/04/23 05:09:42;;;;;;;32.00;21.48;;;;;;;7.48;100.00;100663.59;6100478;23;20437;-77
2023/04/23 05:12:11;;;;;;;32.20;21.00;;;;;;;7.47;100.00;100664.00;6100112;23;20067;-77
2023/04/23 05:14:37;;;;;;;37.70;21.95;;;;;;;7.48;100.00;100655.66;6099615;23;20019;-77
2023/04/23 05:17:04;;;;;;;32.22;21.73;;;;;;;7.50;100.00;100663.19;6100233;23;20453;-77
2023/04/23 05:19:31;;;;;;;33.65;21.80;;;;;;;7.51;100.00;100660.13;6100068;23;20026;-77
2023/04/23 05:21:57;;;;;;;33.17;20.55;;;;;;;7.57;100.00;100660.34;6100110;23;20015;-77
2023/04/23 05:24:24;;;;;;;28.95;20.25;;;;;;;8.20;100.00;100659.66;6100236;23;20094;-77
2023/04/23 05:26:50;;;;;;;33.45;22.45;;;;;;;9.92;100.00;100670.28;6100733;23;20019;-77
2023/04/23 05:29:18;;;;;;;32.70;21.85;;;;;;;11.34;97.30;100666.56;6099609;23;20026;-77
2023/04/23 05:31:45;;;;;;;30.33;20.30;;;;;;;11.54;91.62;100666.84;6099990;23;20019;-77
2023/04/23 05:34:11;;;;;;;30.73;20.92;;;;;;;11.91;89.27;100678.19;6099979;23;20026;-77
2023/04/23 05:36:38;;;;;;;30.27;19.27;;;;;;;12.33;86.67;100672.84;6099954;23;20071;-78
2023/04/23 05:39:05;;;;;;;26.70;18.95;;;;;;;12.99;82.04;100672.72;6100049;23;20019;-77
2023/04/23 05:41:31;;;;;;;25.05;19.02;;;;;;;13.57;79.48;100675.97;6100119;23;20545;-77
2023/04/23 05:43:58;;;;;;;29.08;20.00;;;;;;;14.23;77.55;100670.88;6099495;23;20050;-77
2023/04/23 05:46:25;;;;;;;33.95;19.52;;;;;;;14.66;72.97;100681.94;6100012;23;20098;-77
2023/04/23 05:48:52;;;;;;;27.58;18.80;;;;;;;15.03;72.37;100684.81;6097648;23;20452;-77
2023/04/23 05:51:19;;;;;;;23.67;18.23;;;;;;;15.18;70.94;100680.09;6099665;23;20015;-77
2023/04/23 05:53:45;;;;;;;23.77;17.90;;;;;;;15.10;70.53;100684.41;6100055;23;20027;-77
2023/04/23 05:56:11;;;;;;;21.13;17.50;;;;;;;15.60;68.86;100679.50;6099920;23;20055;-77
2023/04/23 05:58:38;;;;;;;26.15;18.02;;;;;;;15.84;67.36;100687.28;6099083;23;20485;-77
2023/04/23 06:01:05;;;;;;;22.13;17.55;;;;;;;15.52;67.33;100680.41;6099818;23;20398;-77
2023/04/23 06:03:31;;;;;;;23.85;17.75;;;;;;;15.21;69.49;100671.09;6099715;23;20441;-77
2023/04/23 06:05:58;;;;;;;22.00;17.23;;;;;;;15.47;69.53;100675.72;6099935;23;20019;-79
2023/04/23 06:08:25;;;;;;;22.23;17.25;;;;;;;15.30;68.94;100675.56;6100968;23;20019;-77
2023/04/23 06:10:52;;;;;;;23.08;18.05;;;;;;;14.97;70.50;100667.91;6101177;23;20019;-76
2023/04/23 06:13:18;;;;;;;23.48;17.27;;;;;;;14.81;71.64;100669.19;6100202;23;20453;-78
2023/04/23 06:15:44;;;;;;;20.25;16.33;;;;;;;14.61;72.52;100658.50;6100853;23;20022;-77
2023/04/23 06:18:11;;;;;;;21.35;16.63;;;;;;;14.37;73.49;100664.03;6100514;23;20445;-77
2023/04/23 06:20:37;;;;;;;21.38;17.08;;;;;;;14.31;74.68;100661.25;6100685;23;20015;-77
2023/04/23 06:23:05;;;;;;;23.52;17.73;;;;;;;14.01;75.50;100652.56;6100731;23;20023;-79
2023/04/23 06:25:31;;;;;;;20.10;17.02;;;;;;;13.61;77.96;100652.41;6075321;23;20030;-77
2023/04/23 06:27:58;;;;;;;19.05;16.25;;;;;;;13.51;79.40;100653.72;6100213;23;20460;-77
2023/04/23 06:30:28;;;;;;;19.08;16.27;;;;;;;13.33;80.06;100647.34;6074936;23;20397;-78
2023/04/23 06:32:55;;;;;;;20.02;15.63;;;;;;;13.31;80.60;100654.34;6075177;23;20029;-76
2023/04/23 06:35:21;;;;;;;18.40;15.57;;;;;;;13.09;81.96;100653.94;6100771;23;20014;-76
2023/04/23 06:37:48;;;;;;;21.33;15.90;;;;;;;12.90;82.26;100648.72;6101002;23;20513;-76
2023/04/23 06:40:15;;;;;;;20.00;15.93;;;;;;;12.79;83.25;100643.19;6100602;23;20022;-77
2023/04/23 06:42:41;;;;;;;18.58;15.00;;;;;;;12.77;83.64;100639.50;6074923;23;20019;-77
2023/04/23 06:45:16;;;;;;;20.17;15.50;;;;;;;12.85;85.25;100636.00;6074990;23;20026;-78
2023/04/23 06:47:43;;;;;;;17.42;14.02;;;;;;;12.85;83.49;100638.66;6075610;23;20011;-79
2023/04/23 06:50:09;;;;;;;18.35;15.20;;;;;;;12.73;85.72;100634.31;6100346;23;20019;-78
2023/04/23 06:52:36;;;;;;;22.10;15.07;;;;;;;12.85;86.17;100636.00;6100654;23;20460;-78
2023/04/23 06:55:02;;;;;;;16.38;13.70;;;;;;;12.89;84.73;100630.47;6100826;23;20441;-79
2023/04/23 06:57:29;;;;;;;18.60;14.40;;;;;;;12.84;86.27;100626.50;6099796;23;20019;-76
2023/04/23 06:59:56;;;;;;;15.13;13.50;;;;;;;12.92;86.52;100624.97;6100460;23;20015;-76
2023/04/23 07:02:26;;;;;;;18.35;12.05;;;;;;;12.94;85.50;100630.59;6052272;23;20023;-77
2023/04/23 07:04:53;;;;;;;15.10;13.50;;;;;;;13.00;87.15;100620.75;6100400;23;20082;-77
2023/04/23 07:07:20;;;;;;;13.57;12.20;;;;;;;13.20;85.27;100627.41;6100670;23;20436;-77
2023/04/23 07:09:46;;;;;;;13.25;11.95;;;;;;;13.24;84.30;100622.63;6100830;23;20015;-77
2023/04/23 07:12:13;;;;;;;13.68;12.35;;;;;;;13.21;86.14;100631.56;6099673;23;20090;-77
2023/04/23 07:14:39;;;;;;;12.95;11.60;;;;;;;13.34;85.67;100627.44;6075174;23;20015;-77
2023/04/23 07:17:06;;;;;;;13.57;12.18;;;;;;;13.32;85.58;100619.13;6100233;23;20015;-78
2023/04/23 07:19:33;;;;;;;14.00;12.02;;;;;;;13.45;86.81;100618.88;6100471;23;20071;-77
2023/04/23 07:21:59;;;;;;;12.68;11.43;;;;;;;13.53;85.29;100619.25;6100085;23;20481;-77
2023/04/23 07:24:26;;;;;;;12.70;11.35;;;;;;;13.48;85.63;100614.53;6100326;23;20097;-77
2023/04/23 07:26:53;;;;;;;12.82;11.27;;;;;;;13.74;85.30;100612.75;6100099;23;20015;-76
2023/04/23 07:29:21;;;;;;;10.98;9.88;;;;;;;13.82;85.12;100624.56;6100157;23;20449;-77
2023/04/23 07:31:47;;;;;;;11.18;10.07;;;;;;;13.97;85.33;100619.91;6100518;23;20026;-77
2023/04/23 07:34:14;;;;;;;15.43;10.02;;;;;;;14.11;83.73;100623.72;6101387;23;20015;-77
2023/04/23 07:36:41;;;;;;;12.98;9.75;;;;;;;14.18;82.18;100620.66;6102073;23;20015;-77
2023/04/23 07:39:07;;;;;;;13.00;10.48;;;;;;;14.38;82.22;100625.31;6101464;23;20468;-76
2023/04/23 07:41:35;;;;;;;10.95;9.07;;;;;;;14.56;81.95;100622.41;6101035;23;20504;-78
2023/04/23 07:44:02;;;;;;;9.73;8.63;;;;;;;14.70;79.84;100618.19;6101349;23;20015;-77
2023/04/23 07:46:28;;;;;;;8.98;8.10;;;;;;;14.74;79.12;100613.34;6076084;23;20015;-77
2023/04/23 07:48:55;;;;;;;9.20;8.30;;;;;;;14.80;78.53;100611.44;6100239;23;20026;-76
2023/04/23 07:51:25;;;;;;;11.43;7.88;;;;;;;14.92;79.51;100610.34;6101392;23;20080;-77
2023/04/23 07:53:53;;;;;;;9.70;7.90;;;;;;;14.95;77.05;100612.09;6100916;23;20019;-77
2023/04/23 07:56:23;;;;;;;8.57;7.05;;;;;;;15.04;76.60;100611.22;6101230;23;20437;-77
2023/04/23 07:58:50;;;;;;;7.90;6.72;;;;;;;14.98;77.26;100613.84;6100824;23;20027;-77
2023/04/23 08:01:16;;;;;;;7.80;7.10;;;;;;;15.04;77.26;100605.13;6101072;23;20058;-77
2023/04/23 08:03:43;;;;;;;10.48;7.30;;;;;;;15.08;77.16;100609.06;6076141;23;20015;-77
2023/04/23 08:06:11;;;;;;;7.68;6.97;;;;;;;15.25;77.45;100606.50;6100852;23;20015;-77
2023/04/23 08:08:38;;;;;;;8.80;7.20;;;;;;;15.32;77.77;100606.84;6075369;23;20426;-77
2023/04/23 08:11:05;;;;;;;9.88;6.85;;;;;;;15.47;76.17;100600.63;6100813;23;20083;-78
2023/04/23 08:13:32;;;;;;;9.25;6.38;;;;;;;15.66;75.14;100593.69;6101460;23;20019;-77
2023/04/23 08:15:59;;;;;;;10.57;6.57;;;;;;;15.75;74.17;100595.47;6100900;23;20019;-77
2023/04/23 08:18:25;;;;;;;12.38;6.00;;;;;;;15.72;74.68;100594.47;6100764;23;20105;-77
2023/04/23 08:20:53;;;;;;;9.00;6.40;;;;;;;15.85;74.39;100594.81;6075524;23;20019;-77
2023/04/23 08:23:19;;;;;;;10.45;5.80;;;;;;;15.89;73.22;100589.97;6100230;23;20119;-78
2023/04/23 08:25:46;;;;;;;8.27;6.40;;;;;;;16.00;72.99;100591.94;6101500;23;20015;-77
2023/04/23 08:28:13;;;;;;;12.73;5.82;;;;;;;16.14;71.92;100591.06;6075257;23;20014;-76
2023/04/23 08:30:39;;;;;;;7.78;5.47;;;;;;;16.42;72.18;100588.47;6101290;23;20480;-77
2023/04/23 08:33:06;;;;;;;8.02;6.00;;;;;;;16.52;70.95;100586.31;6101089;23;20022;-78
2023/04/23 08:35:32;;;;;;;8.43;5.35;;;;;;;16.77;70.34;100582.03;6075876;23;20107;-77
2023/04/23 08:37:59;;;;;;;8.77;5.50;;;;;;;16.77;69.82;100590.09;6074961;23;20018;-79
2023/04/23 08:40:29;;;;;;;8.50;5.05;;;;;;;16.91;70.24;100587.16;6101643;23;20263;-80
2023/04/23 08:42:56;;;;;;;6.55;5.40;;;;;;;17.03;68.58;100584.50;6101122;23;20193;-78
2023/04/23 08:45:25;;;;;;;8.23;5.32;;;;;;;17.11;68.19;100588.91;6101356;23;20026;-80
2023/04/23 08:47:52;;;;;;;10.00;5.20;;;;;;;17.06;69.23;100591.59;6075937;23;20018;-79
2023/04/23 08:50:18;;;;;;;9.98;5.43;;;;;;;16.94;68.09;100578.13;6101129;23;20029;-78
2023/04/23 08:52:56;;;;;;;11.68;5.47;;;;;;;16.87;69.35;100583.97;6101106;23;20149;-78
2023/04/23 08:55:24;;;;;;;5.35;4.65;;;;;;;16.98;69.49;100581.31;6076447;23;20345;-79
2023/04/23 08:57:51;;;;;;;6.72;4.80;;;;;;;17.12;68.30;100585.00;6075091;23;20018;-77
2023/04/23 09:00:19;;;;;;;8.70;5.00;;;;;;;17.14;66.66;100584.53;6101115;23;20473;-77
2023/04/23 09:02:47;;;;;;;6.82;5.00;;;;;;;17.29;67.24;100579.63;6101485;23;20019;-81
2023/04/23 09:05:14;;;;;;;9.30;5.18;;;;;;;17.50;66.79;100580.13;6101236;23;20018;-78
2023/04/23 09:07:41;;;;;;;5.10;4.43;;;;;;;17.52;65.95;100581.09;6099584;23;20018;-77
2023/04/23 09:10:11;;;;;;;7.65;5.05;;;;;;;17.65;65.36;100583.28;6100973;23;20166;-77
2023/04/23 09:12:40;;;;;;;8.50;4.57;;;;;;;17.56;65.74;100578.16;6101250;23;20015;-77
2023/04/23 09:15:09;;;;;;;15.98;5.55;;;;;;;17.53;65.54;100573.75;6100466;23;20014;-79
2023/04/23 09:17:42;;;;;;;7.97;5.22;;;;;;;17.53;65.62;100579.13;6101337;23;20015;-79
2023/04/23 09:20:11;;;;;;;6.43;4.97;;;;;;;17.61;64.20;100578.13;6101009;23;20402;-79
2023/04/23 09:22:46;;;;;;;8.10;4.68;;;;;;;17.73;65.49;100578.13;6100626;23;20035;-79
2023/04/23 09:25:16;;;;;;;7.50;5.10;;;;;;;17.88;65.04;100573.94;6101281;23;20416;-79
2023/04/23 09:27:44;;;;;;;7.55;4.78;;;;;;;17.71;62.79;100572.50;6101608;23;20014;-79
2023/04/23 09:30:11;;;;;;;7.03;4.57;;;;;;;17.60;63.81;100571.28;6100841;23;20080;-79
2023/04/23 09:32:41;;;;;;;8.73;3.80;;;;;;;17.91;63.20;100567.59;6075702;23;20085;-79
2023/04/23 09:35:11;;;;;;;9.05;3.88;;;;;;;18.06;63.34;100561.16;6100943;23;20015;-78
2023/04/23 09:37:40;;;;;;;3.58;3.28;;;;;;;18.16;61.94;100563.06;6100625;23;20037;-78
2023/04/23 09:40:08;;;;;;;8.15;3.40;;;;;;;18.37;61.73;100563.50;6099047;23;20015;-79
2023/04/23 09:42:35;;;;;;;5.75;3.35;;;;;;;18.53;60.57;100565.34;6101700;23;20022;-80
2023/04/23 09:45:10;;;;;;;8.63;3.15;;;;;;;18.57;58.31;100567.78;6101068;23;20082;-80
2023/04/23 09:47:37;;;;;;;6.72;3.58;;;;;;;18.21;60.22;100561.59;6101447;23;20441;-80
2023/04/23 09:50:05;;;;;;;6.95;3.67;;;;;;;18.03;60.54;100554.06;6100131;23;20026;-80
2023/04/23 09:52:32;;;;;;;8.73;3.65;;;;;;;18.13;59.72;100560.63;6074962;23;20022;-78
2023/04/23 09:55:04;;;;;;;7.28;3.28;;;;;;;18.43;59.04;100555.34;6100557;23;20022;-78
2023/04/23 09:57:39;;;;;;;5.15;3.42;;;;;;;18.43;59.50;100553.41;6100597;23;20018;-81
2023/04/23 10:00:15;;;;;;;8.00;3.40;;;;;;;18.65;59.26;100560.66;6100916;23;20436;-82
2023/04/23 10:02:50;;;;;;;6.10;3.15;;;;;;;18.79;57.58;100556.91;6075521;23;20114;-81
2023/04/23 10:05:21;;;;;;;9.43;3.13;;;;;;;18.81;58.44;100565.19;6100520;23;20019;-80
2023/04/23 10:07:55;;;;;;;5.60;3.53;;;;;;;18.89;58.33;100551.91;6101297;23;20075;-79
2023/04/23 10:10:22;;;;;;;7.40;3.28;;;;;;;19.21;57.54;100552.88;6101122;23;20026;-78
2023/04/23 10:12:52;;;;;;;7.72;3.15;;;;;;;19.34;56.24;100552.28;6075356;23;20019;-78
2023/04/23 10:15:24;;;;;;;3.88;2.70;;;;;;;19.46;57.62;100548.25;6052072;23;20086;-81
2023/04/23 10:17:51;;;;;;;8.07;3.33;;;;;;;19.74;55.37;100552.66;6050986;23;20019;-81
2023/04/23 10:20:20;;;;;;;6.65;3.10;;;;;;;19.65;55.53;100556.44;6050339;23;20030;-79
2023/04/23 10:22:47;;;;;;;5.25;3.22;;;;;;;19.40;56.28;100550.28;6101281;23;20445;-79
2023/04/23 10:25:14;;;;;;;6.13;2.80;;;;;;;19.49;54.15;100549.22;6100746;23;20030;-80
2023/04/23 10:27:43;;;;;;;7.22;2.88;;;;;;;18.92;54.78;100548.94;6101351;23;20025;-77
2023/04/23 10:30:19;;;;;;;9.57;2.60;;;;;;;18.77;56.31;100545.88;6100792;23;20047;-77
2023/04/23 10:32:48;;;;;;;5.30;2.70;;;;;;;19.17;57.08;100540.94;6101023;23;20433;-77
2023/04/23 10:35:15;;;;;;;7.90;2.75;;;;;;;19.51;53.93;100541.38;6100017;23;20026;-78
2023/04/23 10:37:45;;;;;;;8.38;2.42;;;;;;;19.65;54.01;100540.22;6100761;23;20039;-79
2023/04/23 10:40:13;;;;;;;8.10;2.50;;;;;;;19.31;52.96;100534.41;6100668;23;20509;-75
2023/04/23 10:42:42;;;;;;;6.88;2.47;;;;;;;18.84;53.02;100534.53;6101019;23;20990;-74
2023/04/23 10:45:16;;;;;;;5.20;2.30;;;;;;;18.59;54.20;100528.31;6100448;23;20393;-74
2023/04/23 10:47:46;;;;;;;6.65;2.25;;;;;;;18.36;54.55;100531.66;6100904;23;20022;-75
2023/04/23 10:50:20;;;;;;;5.07;2.15;;;;;;;18.25;56.09;100521.66;6099984;23;20506;-74
2023/04/23 10:52:52;;;;;;;3.63;2.00;;;;;;;18.40;55.56;100524.75;6100894;23;20019;-74
2023/04/23 10:55:45;;;;;;;7.82;2.30;;;;;;;18.66;54.61;100508.22;6100244;23;20019;-78
2023/04/23 10:58:12;;;;;;;4.75;2.35;;;;;;;18.95;53.24;100506.75;6063901;23;20031;-79
2023/04/23 11:00:42;;;;;;;5.45;2.40;;;;;;;19.02;52.87;100510.88;6070454;23;20465;-76
2023/04/23 11:03:35;;;;;;;7.68;2.30;;;;;;;19.18;53.51;100510.00;6069796;23;20094;-78
2023/04/23 11:06:07;;;;;;;3.65;1.95;;;;;;;19.32;53.41;100496.13;6071806;23;20030;-78
2023/04/23 11:08:35;;;;;;;8.20;2.50;;;;;;;19.53;52.49;100509.22;6070866;23;20015;-77
2023/04/23 11:11:06;;;;;;;7.05;2.25;;;;;;;19.56;52.09;100500.84;6073104;23;20027;-77
2023/04/23 11:13:33;;;;;;;9.18;2.17;;;;;;;19.63;50.25;100494.84;6073587;23;20039;-79
2023/04/23 11:16:13;;;;;;;5.13;1.90;;;;;;;19.51;50.97;100496.22;6072791;23;20019;-79
2023/04/23 11:19:02;;;;;;;5.75;1.98;;;;;;;19.31;52.16;100489.25;6072769;23;20023;-79